createdAt,value
2023-05-12T00:00:13.072Z,99.90
2023-05-12T00:05:07.516Z,99.90
2023-05-12T00:07:34.412Z,99.90
2023-05-12T00:12:28.392Z,99.90
2023-05-12T00:14:55.375Z,99.90
2023-05-12T00:19:50.140Z,99.90
2023-05-12T00:22:17.121Z,99.90
2023-05-12T00:27:10.995Z,99.90
2023-05-12T00:29:37.753Z,99.90
2023-05-12T00:32:04.749Z,99.90
2023-05-12T00:34:31.545Z,99.90
2023-05-12T00:41:57.081Z,99.90
2023-05-12T00:44:23.994Z,99.90
2023-05-12T00:46:51.512Z,99.90
2023-05-12T00:51:46.424Z,99.90
2023-05-12T00:54:13.304Z,99.90
2023-05-12T00:59:07.186Z,99.90
2023-05-12T01:01:34.715Z,99.90
2023-05-12T01:04:02.700Z,99.90
2023-05-12T01:06:32.598Z,99.90
2023-05-12T01:13:53.645Z,99.90
2023-05-12T01:16:23.736Z,99.90
2023-05-12T01:18:53.548Z,99.90
2023-05-12T01:21:20.562Z,99.90
2023-05-12T01:23:55.700Z,99.90
2023-05-12T01:26:22.718Z,99.90
2023-05-12T01:28:50.411Z,99.90
2023-05-12T01:31:20.262Z,99.90
2023-05-12T01:36:14.806Z,99.90
2023-05-12T01:46:02.897Z,99.90
2023-05-12T01:51:00.452Z,99.90
2023-05-12T02:03:16.474Z,99.90
2023-05-12T02:05:43.262Z,99.90
2023-05-12T02:17:58.726Z,99.90
2023-05-12T02:27:46.966Z,99.90
2023-05-12T02:40:03.536Z,99.90
2023-05-12T02:49:59.950Z,99.90
2023-05-12T02:54:53.816Z,99.90
2023-05-12T02:57:20.512Z,99.90
2023-05-12T03:04:41.563Z,99.90
2023-05-12T03:07:10.603Z,99.90
2023-05-12T03:12:04.720Z,99.90
2023-05-12T03:21:55.076Z,99.90
2023-05-12T03:31:43.130Z,99.90
2023-05-12T03:34:09.834Z,99.90
2023-05-12T03:39:04.262Z,99.90
2023-05-12T03:43:58.068Z,99.90
2023-05-12T03:48:52.455Z,99.90
2023-05-12T03:53:47.682Z,99.90
2023-05-12T03:56:15.693Z,99.90
2023-05-12T03:58:42.614Z,99.90
2023-05-12T04:01:09.540Z,99.90
2023-05-12T04:06:04.693Z,99.90
2023-05-12T04:11:00.939Z,99.90
2023-05-12T04:13:29.165Z,99.90
2023-05-12T04:15:57.039Z,99.90
2023-05-12T04:18:25.011Z,99.90
2023-05-12T04:23:18.927Z,99.90
2023-05-12T04:25:45.765Z,99.90
2023-05-12T04:30:40.552Z,99.90
2023-05-12T04:33:07.445Z,99.90
2023-05-12T04:35:34.449Z,99.90
2023-05-12T04:40:29.170Z,99.90
2023-05-12T04:42:56.237Z,99.90
2023-05-12T04:47:50.390Z,99.90
2023-05-12T04:52:44.261Z,99.90
2023-05-12T04:55:11.093Z,99.90
2023-05-12T05:00:09.095Z,99.90
2023-05-12T05:05:03.265Z,99.90
2023-05-12T05:09:56.995Z,99.90
2023-05-12T05:12:24.416Z,99.90
2023-05-12T05:14:51.182Z,99.90
2023-05-12T05:19:54.906Z,99.90
2023-05-12T05:24:52.610Z,99.90
2023-05-12T05:32:13.540Z,99.90
2023-05-12T05:34:40.288Z,99.90
2023-05-12T05:39:34.126Z,99.90
2023-05-12T05:46:54.905Z,99.90
2023-05-12T05:49:21.627Z,99.90
2023-05-12T05:54:15.542Z,99.90
2023-05-12T05:59:09.895Z,99.90
2023-05-12T06:04:04.018Z,99.90
2023-05-12T06:13:52.568Z,99.90
2023-05-12T06:21:13.648Z,99.90
2023-05-12T06:23:40.286Z,99.90
2023-05-12T06:26:07.821Z,99.90
2023-05-12T06:28:34.496Z,99.90
2023-05-12T06:31:01.178Z,99.90
2023-05-12T06:35:55.080Z,99.90
2023-05-12T06:40:48.912Z,99.90
2023-05-12T06:43:15.634Z,99.90
2023-05-12T06:45:44.447Z,99.90
2023-05-12T06:48:12.101Z,99.90
2023-05-12T06:53:08.013Z,99.90
2023-05-12T06:58:02.286Z,99.90
2023-05-12T07:02:56.226Z,99.90
2023-05-12T07:07:50.587Z,1.00
2023-05-12T07:12:44.478Z,1.00
2023-05-12T07:15:11.467Z,99.90
2023-05-12T07:17:38.272Z,99.90
2023-05-12T07:22:32.755Z,99.90
2023-05-12T07:27:26.888Z,99.90
2023-05-12T07:32:20.903Z,99.90
2023-05-12T07:34:47.604Z,99.90
2023-05-12T07:37:14.260Z,99.90
2023-05-12T07:39:40.947Z,99.90
2023-05-12T07:44:36.257Z,1.00
2023-05-12T07:49:30.204Z,99.90
2023-05-12T07:51:56.884Z,99.90
2023-05-12T07:56:50.722Z,99.90
2023-05-12T07:59:17.572Z,99.90
2023-05-12T08:09:06.490Z,99.90
2023-05-12T08:11:33.174Z,99.90
2023-05-12T08:16:27.454Z,99.90
2023-05-12T08:21:21.470Z,99.90
2023-05-12T08:23:48.140Z,99.90
2023-05-12T08:26:14.805Z,99.90
2023-05-12T08:33:36.195Z,99.90
2023-05-12T08:38:30.425Z,99.90
2023-05-12T08:41:03.134Z,99.90
2023-05-12T08:43:44.453Z,99.90
2023-05-12T08:46:12.934Z,99.90
2023-05-12T08:48:40.577Z,99.90
2023-05-12T08:51:13.105Z,99.90
2023-05-12T08:53:41.861Z,99.90
2023-05-12T08:58:42.723Z,99.90
2023-05-12T09:01:12.188Z,99.90
2023-05-12T09:03:39.163Z,99.90
2023-05-12T09:06:06.852Z,99.90
2023-05-12T09:08:35.093Z,99.90
2023-05-12T09:11:02.669Z,99.90
2023-05-12T09:13:54.147Z,99.90
2023-05-12T09:16:24.394Z,99.90
2023-05-12T09:18:53.249Z,99.90
2023-05-12T09:21:20.950Z,99.90
2023-05-12T09:24:06.224Z,99.90
2023-05-12T09:26:52.895Z,99.90
2023-05-12T09:29:30.745Z,99.90
2023-05-12T09:31:59.934Z,99.90
2023-05-12T09:34:31.801Z,99.90
2023-05-12T09:37:00.997Z,99.90
2023-05-12T09:39:28.952Z,99.90
2023-05-12T09:41:56.101Z,99.90
2023-05-12T09:44:24.987Z,99.90
2023-05-12T09:46:52.714Z,99.90
2023-05-12T09:49:21.051Z,99.90
2023-05-12T09:51:52.624Z,99.90
2023-05-12T09:54:26.410Z,99.90
2023-05-12T09:56:57.586Z,99.90
2023-05-12T09:59:29.236Z,99.90
2023-05-12T10:02:02.698Z,99.90
2023-05-12T10:04:32.584Z,99.90
2023-05-12T10:06:59.654Z,99.90
2023-05-12T10:09:31.777Z,99.90
2023-05-12T10:11:59.122Z,99.90
2023-05-12T10:14:26.762Z,99.90
2023-05-12T10:16:55.202Z,99.90
2023-05-12T10:19:22.570Z,99.90
2023-05-12T10:21:50.409Z,99.90
2023-05-12T10:24:17.591Z,99.90
2023-05-12T10:26:44.922Z,99.90
2023-05-12T10:29:13.172Z,99.90
2023-05-12T10:31:40.461Z,99.90
2023-05-12T10:34:07.395Z,99.90
2023-05-12T10:36:49.639Z,99.90
2023-05-12T10:39:16.355Z,99.90
2023-05-12T10:41:43.149Z,99.90
2023-05-12T10:44:10.874Z,99.90
2023-05-12T10:46:38.075Z,99.90
2023-05-12T10:49:10.150Z,99.90
2023-05-12T10:51:43.054Z,99.90
2023-05-12T10:54:12.628Z,99.90
2023-05-12T10:56:39.431Z,99.90
2023-05-12T10:59:21.001Z,99.90
2023-05-12T11:02:17.108Z,99.90
2023-05-12T11:04:51.702Z,99.90
2023-05-12T11:07:27.072Z,99.90
2023-05-12T11:09:59.517Z,99.90
2023-05-12T11:12:33.202Z,99.90
2023-05-12T11:15:01.547Z,99.90
2023-05-12T11:17:28.598Z,99.90
2023-05-12T11:19:55.737Z,99.90
2023-05-12T11:22:23.611Z,99.90
2023-05-12T11:24:51.110Z,99.90
2023-05-12T11:27:19.870Z,99.90
2023-05-12T11:29:59.795Z,99.90
2023-05-12T11:32:27.188Z,99.90
2023-05-12T11:34:53.924Z,99.90
2023-05-12T11:37:21.358Z,99.90
2023-05-12T11:39:48.604Z,99.90
2023-05-12T11:42:17.722Z,99.90
2023-05-12T11:44:47.824Z,99.90
2023-05-12T11:47:15.543Z,99.90
2023-05-12T11:50:00.408Z,99.90
2023-05-12T11:52:27.455Z,60.00
2023-05-12T11:54:58.711Z,99.90
2023-05-12T11:57:30.459Z,99.90
2023-05-12T12:00:02.497Z,95.70
2023-05-12T12:02:29.651Z,94.40
2023-05-12T12:04:57.272Z,53.50
2023-05-12T12:07:32.062Z,50.70
2023-05-12T12:10:10.344Z,91.70
2023-05-12T12:12:37.047Z,92.60
2023-05-12T12:15:05.229Z,1.60
2023-05-12T12:17:31.956Z,1.00
2023-05-12T12:19:58.745Z,1.00
2023-05-12T12:22:25.524Z,1.00
2023-05-12T12:24:52.274Z,1.00
2023-05-12T12:27:18.929Z,42.00
2023-05-12T12:29:45.563Z,48.80
2023-05-12T12:32:12.303Z,99.90
2023-05-12T12:34:38.972Z,99.90
2023-05-12T12:37:06.516Z,26.00
2023-05-12T12:39:33.309Z,99.90
2023-05-12T12:41:59.964Z,27.70
2023-05-12T12:44:27.067Z,7.70
2023-05-12T12:46:53.984Z,1.00
2023-05-12T12:49:20.673Z,1.00
2023-05-12T12:51:47.780Z,1.00
2023-05-12T12:54:15.565Z,1.00
2023-05-12T12:56:44.423Z,1.00
2023-05-12T12:59:11.930Z,1.00
2023-05-12T13:01:38.629Z,20.90
2023-05-12T13:04:05.320Z,1.00
2023-05-12T13:06:32.013Z,1.00
2023-05-12T13:08:58.773Z,1.00
2023-05-12T13:11:25.501Z,1.00
2023-05-12T13:13:52.162Z,1.00
2023-05-12T13:16:18.920Z,1.00
2023-05-12T13:18:45.998Z,1.00
2023-05-12T13:21:12.769Z,1.00
2023-05-12T13:23:39.424Z,1.00
2023-05-12T13:26:06.098Z,1.00
2023-05-12T13:28:32.991Z,1.00
2023-05-12T13:30:59.712Z,1.00
2023-05-12T13:33:26.451Z,1.00
2023-05-12T13:35:53.114Z,1.00
2023-05-12T13:38:19.886Z,1.00
2023-05-12T13:40:46.713Z,1.00
2023-05-12T13:43:13.443Z,1.00
2023-05-12T13:45:40.082Z,1.00
2023-05-12T13:48:06.882Z,1.00
2023-05-12T13:50:34.549Z,1.00
2023-05-12T13:53:01.225Z,1.00
2023-05-12T13:55:27.885Z,1.00
2023-05-12T13:57:54.688Z,1.00
2023-05-12T14:00:22.159Z,1.00
2023-05-12T14:02:48.915Z,1.00
2023-05-12T14:05:17.101Z,1.00
2023-05-12T14:07:44.015Z,1.00
2023-05-12T14:10:11.127Z,1.00
2023-05-12T14:12:37.845Z,1.00
2023-05-12T14:15:21.816Z,1.00
2023-05-12T14:17:51.976Z,1.00
2023-05-12T14:20:18.833Z,1.00
2023-05-12T14:22:45.517Z,1.00
2023-05-12T14:25:12.301Z,11.60
2023-05-12T14:27:38.968Z,1.00
2023-05-12T14:30:07.571Z,62.80
2023-05-12T14:32:34.442Z,99.90
2023-05-12T14:35:01.195Z,99.90
2023-05-12T14:37:27.938Z,99.90
2023-05-12T14:39:56.665Z,99.90
2023-05-12T14:42:23.775Z,99.90
2023-05-12T14:44:50.538Z,99.90
2023-05-12T14:47:17.274Z,99.90
2023-05-12T14:49:45.617Z,99.90
2023-05-12T14:52:12.654Z,99.90
2023-05-12T14:54:39.331Z,99.90
2023-05-12T14:57:06.233Z,99.90
2023-05-12T14:59:33.002Z,99.90
2023-05-12T15:02:00.752Z,99.90
2023-05-12T15:04:27.620Z,99.90
2023-05-12T15:06:54.480Z,99.90
2023-05-12T15:09:21.301Z,99.90
2023-05-12T15:11:49.297Z,99.90
2023-05-12T15:14:16.043Z,99.90
2023-05-12T15:16:42.865Z,99.90
2023-05-12T15:19:09.727Z,99.90
2023-05-12T15:21:36.795Z,99.90
2023-05-12T15:24:03.902Z,99.90
2023-05-12T15:26:34.265Z,99.90
2023-05-12T15:29:02.473Z,99.90
2023-05-12T15:31:29.854Z,99.90
2023-05-12T15:33:57.283Z,99.90
2023-05-12T15:36:25.072Z,99.90
2023-05-12T15:38:51.804Z,99.90
2023-05-12T15:41:18.610Z,99.90
2023-05-12T15:43:45.352Z,99.90
2023-05-12T15:46:12.139Z,99.90
2023-05-12T15:48:39.407Z,99.90
2023-05-12T15:51:07.820Z,99.90
2023-05-12T15:53:34.499Z,96.30
2023-05-12T15:56:05.151Z,99.90
2023-05-12T15:58:32.220Z,99.90
2023-05-12T16:00:59.386Z,99.90
2023-05-12T16:03:26.424Z,99.90
2023-05-12T16:05:53.455Z,99.90
2023-05-12T16:08:20.358Z,99.90
2023-05-12T16:10:47.073Z,99.90
2023-05-12T16:13:14.513Z,99.90
2023-05-12T16:15:41.272Z,99.90
2023-05-12T16:18:10.900Z,99.90
2023-05-12T16:20:37.995Z,99.90
2023-05-12T16:23:04.793Z,99.90
2023-05-12T16:25:31.556Z,99.90
2023-05-12T16:27:58.250Z,99.90
2023-05-12T16:30:25.023Z,99.90
2023-05-12T16:32:51.853Z,99.90
2023-05-12T16:35:19.074Z,99.90
2023-05-12T16:37:46.264Z,99.90
2023-05-12T16:40:13.601Z,99.90
2023-05-12T16:42:40.627Z,99.90
2023-05-12T16:45:08.045Z,99.90
2023-05-12T16:47:35.491Z,99.90
2023-05-12T16:50:02.369Z,99.90
2023-05-12T16:52:29.166Z,99.90
2023-05-12T16:54:57.265Z,99.90
2023-05-12T16:57:24.358Z,99.90
2023-05-12T17:02:18.591Z,99.90
2023-05-12T17:04:46.489Z,99.90
2023-05-12T17:07:13.361Z,99.90
2023-05-12T17:21:57.027Z,99.90
2023-05-12T17:24:23.686Z,99.90
2023-05-12T17:26:50.528Z,99.90
2023-05-12T17:36:38.842Z,99.90
2023-05-12T17:46:26.875Z,99.90
2023-05-12T17:51:20.826Z,99.90
2023-05-12T17:53:47.481Z,99.90
2023-05-12T17:58:41.593Z,99.90
2023-05-12T18:10:59.442Z,99.90
2023-05-12T18:13:26.169Z,99.90
2023-05-12T18:25:42.816Z,99.90
2023-05-12T18:30:36.665Z,99.90
2023-05-12T18:35:30.703Z,99.90
2023-05-12T18:37:57.473Z,99.90
2023-05-12T18:40:24.224Z,99.90
2023-05-12T18:50:13.507Z,99.90
2023-05-12T18:55:08.171Z,99.90
2023-05-12T19:07:24.335Z,99.90
2023-05-12T19:12:18.129Z,99.90
2023-05-12T19:17:12.100Z,99.90
2023-05-12T19:19:39.275Z,99.90
2023-05-12T19:27:01.227Z,99.90
2023-05-12T19:31:55.315Z,99.90
2023-05-12T19:36:50.859Z,99.90
2023-05-12T19:39:17.516Z,99.90
2023-05-12T19:41:44.406Z,99.90
2023-05-12T19:49:05.919Z,99.90
2023-05-12T19:54:01.885Z,99.90
2023-05-12T19:56:29.544Z,99.90
2023-05-12T19:58:56.311Z,99.90
2023-05-12T20:01:23.043Z,99.90
2023-05-12T20:03:49.906Z,99.90
2023-05-12T20:18:33.922Z,99.90
2023-05-12T20:21:01.066Z,99.90
2023-05-12T20:23:27.739Z,99.90
2023-05-12T20:33:17.788Z,99.90
2023-05-12T20:38:12.319Z,99.90
2023-05-12T20:48:02.218Z,99.90
2023-05-12T20:50:28.958Z,99.90
2023-05-12T20:55:23.099Z,99.90
2023-05-12T21:00:18.235Z,99.90
2023-05-12T21:10:06.876Z,99.90
2023-05-12T21:12:34.135Z,99.90
2023-05-12T21:15:01.708Z,99.90
2023-05-12T21:24:51.598Z,99.90
2023-05-12T21:32:12.688Z,99.90
2023-05-12T21:37:06.604Z,99.90
2023-05-12T21:51:49.053Z,99.90
2023-05-12T21:54:15.743Z,99.90
2023-05-12T21:59:09.611Z,99.90
2023-05-12T22:08:59.048Z,99.90
2023-05-12T22:21:22.846Z,99.90
2023-05-12T22:26:16.698Z,99.90
2023-05-12T22:31:10.743Z,99.90
2023-05-12T22:40:58.894Z,99.90
2023-05-12T22:45:53.647Z,99.90
2023-05-12T22:50:47.697Z,99.90
2023-05-12T22:55:41.985Z,99.90
2023-05-12T23:00:37.143Z,99.90
2023-05-12T23:03:04.478Z,99.90
2023-05-12T23:05:31.257Z,99.90
2023-05-12T23:12:52.537Z,99.90
2023-05-12T23:17:46.379Z,99.90
2023-05-12T23:20:13.561Z,99.90
2023-05-12T23:25:07.906Z,99.90
2023-05-12T23:27:35.656Z,99.90
2023-05-12T23:37:24.830Z,99.90
2023-05-12T23:39:51.536Z,99.90
2023-05-12T23:42:18.220Z,99.90
2023-05-12T23:49:39.190Z,99.90
2023-05-12T23:52:06.003Z,99.90
2023-05-12T23:56:59.778Z,99.90
2023-05-12T23:59:26.512Z,99.90
